09OK weather

Ragtime Aerodrome
Collinsville, Oklahoma, United States

Public forecast

Using degrees Fahrenheit for public forecast. Weather courtesy of forecast.io.

METAR (pilot weather report)

Closest report is Tulsa International Airport, 9.4 nm (17.5 km) S. Retrieved 2019/04/21 21:53 UTC (46 minutes ago):

KTUL 212153Z 17024G32KT 10SM BKN190 28/10 A2979 RMK AO2 PK WND 16033/2141 SLP080 VIRGA ALQDS T02830100 $

TAF (pilot weather forecast)

Closest forecast is Tulsa International Airport, 9.4 nm (17.5 km) S. Retrieved 2019/04/21 18:22 UTC (4 hours ago):

TAF KTUL 211720Z 2118/2218 16017G27KT P6SM SCT200 FM220100 18015KT P6SM SCT150 FM221300 19015KT P6SM BKN025